createdAt,value
2022-11-17T00:00:12.417Z,66.34
2022-11-17T00:01:12.349Z,60.85
2022-11-17T00:02:12.403Z,63.11
2022-11-17T00:03:12.336Z,63.51
2022-11-17T00:04:12.353Z,60.33
2022-11-17T00:05:12.302Z,66.61
2022-11-17T00:06:12.302Z,63.45
2022-11-17T00:07:12.605Z,60.47
2022-11-17T00:08:12.289Z,63.08
2022-11-17T00:09:12.303Z,62.68
2022-11-17T00:10:12.305Z,67.55
2022-11-17T00:11:12.273Z,63.79
2022-11-17T00:12:12.263Z,61.40
2022-11-17T00:13:12.301Z,60.97
2022-11-17T00:14:12.266Z,62.67
2022-11-17T00:15:12.279Z,61.65
2022-11-17T00:16:12.262Z,60.72
2022-11-17T00:17:12.249Z,60.23
2022-11-17T00:18:12.229Z,61.82
2022-11-17T00:19:12.249Z,60.12
2022-11-17T00:20:12.224Z,64.93
2022-11-17T00:21:12.221Z,59.99
2022-11-17T00:22:12.223Z,63.42
2022-11-17T00:23:12.197Z,66.80
2022-11-17T00:24:12.293Z,63.62
2022-11-17T00:25:12.189Z,61.03
2022-11-17T00:26:12.201Z,60.98
2022-11-17T00:27:12.175Z,60.99
2022-11-17T00:28:12.212Z,64.23
2022-11-17T00:29:12.165Z,64.43
2022-11-17T00:30:12.162Z,60.81
2022-11-17T00:31:12.176Z,60.92
2022-11-17T00:32:12.159Z,60.54
2022-11-17T00:33:12.135Z,59.99
2022-11-17T00:34:12.135Z,60.10
2022-11-17T00:35:12.165Z,60.16
2022-11-17T00:36:12.152Z,60.45
2022-11-17T00:37:12.155Z,63.94
2022-11-17T00:38:12.144Z,60.38
2022-11-17T00:39:12.119Z,60.63
2022-11-17T00:40:12.127Z,62.38
2022-11-17T00:41:12.103Z,60.44
2022-11-17T00:42:12.094Z,59.92
2022-11-17T00:43:12.107Z,60.22
2022-11-17T00:44:12.115Z,60.27
2022-11-17T00:45:12.075Z,60.89
2022-11-17T00:46:12.079Z,64.81
2022-11-17T00:47:12.087Z,60.42
2022-11-17T00:48:12.092Z,60.52
2022-11-17T00:49:12.050Z,59.90
2022-11-17T00:50:13.071Z,59.47
2022-11-17T00:51:12.058Z,60.00
2022-11-17T00:52:12.043Z,63.52
2022-11-17T00:53:12.066Z,64.26
2022-11-17T00:54:12.035Z,63.42
2022-11-17T00:55:12.046Z,59.74
2022-11-17T00:56:12.036Z,63.68
2022-11-17T00:57:12.011Z,63.46
2022-11-17T00:58:12.035Z,62.96
2022-11-17T00:59:12.020Z,62.39
2022-11-17T01:00:12.003Z,59.99
2022-11-17T01:01:12.042Z,63.39
2022-11-17T01:02:12.008Z,60.82
2022-11-17T01:03:11.999Z,60.66
2022-11-17T01:04:11.978Z,60.45
2022-11-17T01:05:11.987Z,60.43
2022-11-17T01:06:11.958Z,59.92
2022-11-17T01:07:11.979Z,60.20
2022-11-17T01:08:11.971Z,61.84
2022-11-17T01:09:11.990Z,67.34
2022-11-17T01:10:11.952Z,60.72
2022-11-17T01:11:11.955Z,66.36
2022-11-17T01:12:11.939Z,66.63
2022-11-17T01:13:11.920Z,60.71
2022-11-17T01:14:11.939Z,60.19
2022-11-17T01:15:11.920Z,61.15
2022-11-17T01:16:11.932Z,65.75
2022-11-17T01:17:11.941Z,60.09
2022-11-17T01:18:11.895Z,59.53
2022-11-17T01:19:11.896Z,60.25
2022-11-17T01:20:11.908Z,60.47
2022-11-17T01:21:11.904Z,62.08
2022-11-17T01:22:11.875Z,60.90
2022-11-17T01:23:11.914Z,60.65
2022-11-17T01:24:11.862Z,65.09
2022-11-17T01:25:11.854Z,61.35
2022-11-17T01:26:11.866Z,60.86
2022-11-17T01:27:11.855Z,67.06
2022-11-17T01:28:11.841Z,60.49
2022-11-17T01:29:11.903Z,63.17
2022-11-17T01:30:11.830Z,61.01
2022-11-17T01:31:12.819Z,64.07
2022-11-17T01:32:11.866Z,64.12
2022-11-17T01:33:11.823Z,62.19
2022-11-17T01:34:11.807Z,62.53
2022-11-17T01:35:11.827Z,60.68
2022-11-17T01:36:11.791Z,65.39
2022-11-17T01:37:11.794Z,63.18
2022-11-17T01:38:11.802Z,60.08
2022-11-17T01:39:11.790Z,60.07
2022-11-17T01:40:11.758Z,60.72
2022-11-17T01:41:11.791Z,62.37
2022-11-17T01:42:11.827Z,60.73
2022-11-17T01:43:11.761Z,61.50
2022-11-17T01:44:11.856Z,65.72
2022-11-17T01:45:11.752Z,63.42
2022-11-17T01:46:11.753Z,63.78
2022-11-17T01:47:11.754Z,60.57
2022-11-17T01:48:11.740Z,63.97
2022-11-17T01:49:11.757Z,59.80
2022-11-17T01:50:11.725Z,60.12
2022-11-17T01:51:11.722Z,60.17
2022-11-17T01:52:11.703Z,63.11
2022-11-17T01:53:11.717Z,61.51
2022-11-17T01:54:11.695Z,64.36
2022-11-17T01:55:11.682Z,60.48
2022-11-17T01:56:11.708Z,64.40
2022-11-17T01:57:11.680Z,63.70
2022-11-17T01:58:11.682Z,64.34
2022-11-17T01:59:11.674Z,62.63
2022-11-17T02:00:11.751Z,59.59
2022-11-17T02:01:11.684Z,59.58
2022-11-17T02:02:12.603Z,59.85
2022-11-17T02:03:11.677Z,59.88
2022-11-17T02:04:11.646Z,60.19
2022-11-17T02:05:11.648Z,60.36
2022-11-17T02:06:11.626Z,60.88
2022-11-17T02:07:11.639Z,60.80
2022-11-17T02:08:11.614Z,60.92
2022-11-17T02:09:11.651Z,61.13
2022-11-17T02:10:11.606Z,64.31
2022-11-17T02:11:11.613Z,61.52
2022-11-17T02:12:11.618Z,67.72
2022-11-17T02:13:11.589Z,66.55
2022-11-17T02:14:11.601Z,63.78
2022-11-17T02:15:11.605Z,60.06
2022-11-17T02:16:11.566Z,61.84
2022-11-17T02:17:14.209Z,59.98
2022-11-17T02:18:12.583Z,60.40
2022-11-17T02:19:11.569Z,60.23
2022-11-17T02:20:11.547Z,61.14
2022-11-17T02:21:11.567Z,61.74
2022-11-17T02:22:11.546Z,60.27
2022-11-17T02:23:11.529Z,62.64
2022-11-17T02:24:37.500Z,62.95
2022-11-17T02:25:11.525Z,65.79
2022-11-17T02:26:11.520Z,64.08
2022-11-17T02:27:11.506Z,60.45
2022-11-17T02:28:11.509Z,60.27
2022-11-17T02:29:11.484Z,60.47
2022-11-17T02:30:11.491Z,59.87
2022-11-17T02:31:11.484Z,60.20
2022-11-17T02:32:11.565Z,60.04
2022-11-17T02:33:11.469Z,60.10
2022-11-17T02:34:11.445Z,60.08
2022-11-17T02:35:12.464Z,60.30
2022-11-17T02:36:11.470Z,63.18
2022-11-17T02:37:11.437Z,60.51
2022-11-17T02:38:11.448Z,61.04
2022-11-17T02:39:11.433Z,64.49
2022-11-17T02:40:11.431Z,68.33
2022-11-17T02:41:11.447Z,62.78
2022-11-17T02:42:11.448Z,60.01
2022-11-17T02:43:11.415Z,63.46
2022-11-17T02:44:11.401Z,61.22
2022-11-17T02:45:11.404Z,63.30
2022-11-17T02:46:11.400Z,60.89
2022-11-17T02:47:11.424Z,60.48
2022-11-17T02:48:11.399Z,60.63
2022-11-17T02:49:11.388Z,62.82
2022-11-17T02:50:11.380Z,60.23
2022-11-17T02:51:11.365Z,60.40
2022-11-17T02:52:11.384Z,62.86
2022-11-17T02:53:11.350Z,64.09
2022-11-17T02:54:11.355Z,69.69
2022-11-17T02:55:11.337Z,64.24
2022-11-17T02:56:11.343Z,62.87
2022-11-17T02:57:11.331Z,60.71
2022-11-17T02:58:11.356Z,60.37
2022-11-17T02:59:11.315Z,61.91
2022-11-17T03:00:11.316Z,66.28
2022-11-17T03:01:11.343Z,61.23
2022-11-17T03:02:11.291Z,60.96
2022-11-17T03:03:11.307Z,63.42
2022-11-17T03:04:11.410Z,65.17
2022-11-17T03:05:11.283Z,61.10
2022-11-17T03:06:11.295Z,60.61
2022-11-17T03:07:11.320Z,63.37
2022-11-17T03:08:11.263Z,63.49
2022-11-17T03:09:11.286Z,67.46
2022-11-17T03:10:11.263Z,61.15
2022-11-17T03:11:11.249Z,65.50
2022-11-17T03:12:11.256Z,63.43
2022-11-17T03:13:11.237Z,60.52
2022-11-17T03:14:11.240Z,61.59
2022-11-17T03:15:11.238Z,64.15
2022-11-17T03:16:11.237Z,67.28
2022-11-17T03:17:11.220Z,63.82
2022-11-17T03:18:11.222Z,63.01
2022-11-17T03:19:11.213Z,63.10
2022-11-17T03:20:11.308Z,61.37
2022-11-17T03:21:11.216Z,64.50
2022-11-17T03:22:11.198Z,65.00
2022-11-17T03:23:11.179Z,64.91
2022-11-17T03:24:11.175Z,69.35
2022-11-17T03:25:11.180Z,60.08
2022-11-17T03:26:11.207Z,60.47
2022-11-17T03:27:11.167Z,67.90
2022-11-17T03:28:11.164Z,63.62
2022-11-17T03:29:11.154Z,60.77
2022-11-17T03:30:11.176Z,66.57
2022-11-17T03:31:11.155Z,71.23
2022-11-17T03:32:11.137Z,62.78
2022-11-17T03:33:11.131Z,66.27
2022-11-17T03:34:11.116Z,62.82
2022-11-17T03:35:11.110Z,62.75
2022-11-17T03:36:11.197Z,64.03
2022-11-17T03:37:11.119Z,62.61
2022-11-17T03:38:11.084Z,60.46
2022-11-17T03:39:11.091Z,60.23
2022-11-17T03:40:11.094Z,59.98
2022-11-17T03:41:11.071Z,62.30
2022-11-17T03:42:11.105Z,66.82
2022-11-17T03:43:11.069Z,67.06
2022-11-17T03:44:11.070Z,64.52
2022-11-17T03:45:11.051Z,66.13
2022-11-17T03:46:11.059Z,62.24
2022-11-17T03:47:11.068Z,67.03
2022-11-17T03:48:11.079Z,61.42
2022-11-17T03:49:11.030Z,65.40
2022-11-17T03:50:11.031Z,71.82
2022-11-17T03:51:11.046Z,63.62
2022-11-17T03:52:11.149Z,62.34
2022-11-17T03:53:11.030Z,64.17
2022-11-17T03:54:11.005Z,68.36
2022-11-17T03:55:10.983Z,73.87
2022-11-17T03:56:11.998Z,67.57
2022-11-17T03:57:10.990Z,68.77
2022-11-17T03:58:11.004Z,69.46
2022-11-17T03:59:10.967Z,60.79
2022-11-17T04:00:10.993Z,67.53
2022-11-17T04:01:10.970Z,63.40
2022-11-17T04:02:11.042Z,67.37
2022-11-17T04:03:10.949Z,63.41
2022-11-17T04:04:10.967Z,68.61
2022-11-17T04:05:10.941Z,63.17
2022-11-17T04:06:10.953Z,66.34
2022-11-17T04:07:10.989Z,64.25
2022-11-17T04:08:10.938Z,70.18
2022-11-17T04:09:10.943Z,69.61
2022-11-17T04:10:10.910Z,68.44
2022-11-17T04:11:10.906Z,66.48
2022-11-17T04:12:10.904Z,67.16
2022-11-17T04:13:10.904Z,67.26
2022-11-17T04:14:10.919Z,68.24
2022-11-17T04:15:10.895Z,73.28
2022-11-17T04:16:10.906Z,70.76
2022-11-17T04:17:10.883Z,68.59
2022-11-17T04:18:10.867Z,66.12
2022-11-17T04:19:10.870Z,68.29
2022-11-17T04:20:10.854Z,66.48
2022-11-17T04:21:10.860Z,66.54
2022-11-17T04:22:10.994Z,65.93
2022-11-17T04:23:10.846Z,67.78
2022-11-17T04:24:10.966Z,68.85
2022-11-17T04:25:10.838Z,69.69
2022-11-17T04:26:10.826Z,70.23
2022-11-17T04:27:10.821Z,72.68
2022-11-17T04:28:11.678Z,65.24
2022-11-17T04:29:10.808Z,65.20
2022-11-17T04:30:10.819Z,70.40
2022-11-17T04:31:10.797Z,71.00
2022-11-17T04:32:10.772Z,69.66
2022-11-17T04:33:10.784Z,72.78
2022-11-17T04:34:10.791Z,67.06
2022-11-17T04:35:10.813Z,68.55
2022-11-17T04:36:10.781Z,73.21
2022-11-17T04:37:10.769Z,70.09
2022-11-17T04:38:10.740Z,71.82
2022-11-17T04:39:10.755Z,65.57
2022-11-17T04:40:10.880Z,74.83
2022-11-17T04:41:10.739Z,69.20
2022-11-17T04:42:10.728Z,73.10
2022-11-17T04:43:10.724Z,74.02
2022-11-17T04:44:10.719Z,73.22
2022-11-17T04:45:10.718Z,73.40
2022-11-17T04:46:10.716Z,73.43
2022-11-17T04:47:10.714Z,73.82
2022-11-17T04:48:10.711Z,75.49
2022-11-17T04:49:10.689Z,70.21
2022-11-17T04:50:10.678Z,69.08
2022-11-17T04:51:10.686Z,75.10
2022-11-17T04:52:10.703Z,72.19
2022-11-17T04:53:10.669Z,78.17
2022-11-17T04:54:10.677Z,71.49
2022-11-17T04:55:10.654Z,72.98
2022-11-17T04:56:10.685Z,74.36
2022-11-17T04:57:10.685Z,74.16
2022-11-17T04:58:11.121Z,69.22
2022-11-17T04:59:11.637Z,73.30
2022-11-17T05:00:10.624Z,71.62
2022-11-17T05:01:10.627Z,75.96
2022-11-17T05:02:10.659Z,74.51
2022-11-17T05:03:10.610Z,69.79
2022-11-17T05:04:10.598Z,70.02
2022-11-17T05:05:10.598Z,74.17
2022-11-17T05:06:10.596Z,76.32
2022-11-17T05:07:10.728Z,74.87
2022-11-17T05:08:10.571Z,76.07
2022-11-17T05:09:11.575Z,77.50
2022-11-17T05:10:10.571Z,71.93
2022-11-17T05:11:10.594Z,71.28
2022-11-17T05:12:10.670Z,74.60
2022-11-17T05:13:10.563Z,77.01
2022-11-17T05:14:10.577Z,70.95
2022-11-17T05:15:10.532Z,66.73
2022-11-17T05:16:10.531Z,72.20
2022-11-17T05:17:11.824Z,77.09
2022-11-17T05:18:11.533Z,73.71
2022-11-17T05:19:10.517Z,69.94
2022-11-17T05:20:10.531Z,70.68
2022-11-17T05:21:10.511Z,77.08
2022-11-17T05:22:10.508Z,76.30
2022-11-17T05:23:10.501Z,69.80
2022-11-17T05:24:10.506Z,77.76
2022-11-17T05:25:10.504Z,73.86
2022-11-17T05:26:10.483Z,79.03
2022-11-17T05:27:10.473Z,74.81
2022-11-17T05:28:10.595Z,71.12
2022-11-17T05:29:10.476Z,72.42
2022-11-17T05:30:10.457Z,76.14
2022-11-17T05:31:10.454Z,76.38
2022-11-17T05:32:10.436Z,77.87
2022-11-17T05:33:10.440Z,77.11
2022-11-17T05:34:10.443Z,75.68
2022-11-17T05:35:10.436Z,75.98
2022-11-17T05:36:10.409Z,79.45
2022-11-17T05:37:10.419Z,75.48
2022-11-17T05:38:10.395Z,75.63
2022-11-17T05:39:10.404Z,79.28
2022-11-17T05:40:10.431Z,74.71
2022-11-17T05:41:10.387Z,76.61
2022-11-17T05:42:10.387Z,78.45
2022-11-17T05:43:10.371Z,77.90
2022-11-17T05:44:10.463Z,73.69
2022-11-17T05:45:10.369Z,77.27
2022-11-17T05:46:10.376Z,71.55
2022-11-17T05:47:10.366Z,79.43
2022-11-17T05:48:10.349Z,75.87
2022-11-17T05:49:10.350Z,76.25
2022-11-17T05:50:10.417Z,73.71
2022-11-17T05:51:10.343Z,73.33
2022-11-17T05:52:10.330Z,76.46
2022-11-17T05:53:10.331Z,74.11
2022-11-17T05:54:10.315Z,73.96
2022-11-17T05:55:10.354Z,76.03
2022-11-17T05:56:10.320Z,74.42
2022-11-17T05:57:10.300Z,74.89
2022-11-17T05:58:10.300Z,72.82
2022-11-17T05:59:10.296Z,73.19
2022-11-17T06:00:10.312Z,74.94
2022-11-17T06:01:10.284Z,74.76
2022-11-17T06:02:10.280Z,73.89
2022-11-17T06:03:10.268Z,73.20
2022-11-17T06:04:10.260Z,75.85
2022-11-17T06:05:15.689Z,74.96
2022-11-17T06:06:11.245Z,75.53
2022-11-17T06:07:10.312Z,72.13
2022-11-17T06:08:10.244Z,74.36
2022-11-17T06:09:10.240Z,76.23
2022-11-17T06:10:10.229Z,78.75
2022-11-17T06:11:10.223Z,73.28
2022-11-17T06:12:10.249Z,75.39
2022-11-17T06:13:10.201Z,74.50
2022-11-17T06:14:10.219Z,72.39
2022-11-17T06:15:10.216Z,76.20
2022-11-17T06:16:10.296Z,74.68
2022-11-17T06:17:10.188Z,75.68
2022-11-17T06:18:10.175Z,74.06
2022-11-17T06:19:10.196Z,77.37
2022-11-17T06:20:10.199Z,72.18
2022-11-17T06:21:10.162Z,75.72
2022-11-17T06:22:12.997Z,75.40
2022-11-17T06:23:11.155Z,75.31
2022-11-17T06:24:10.149Z,74.22
2022-11-17T06:25:10.184Z,74.34
2022-11-17T06:26:10.131Z,78.71
2022-11-17T06:27:10.134Z,73.96
2022-11-17T06:28:10.123Z,78.67
2022-11-17T06:29:10.114Z,75.60
2022-11-17T06:30:10.119Z,77.51
2022-11-17T06:31:10.120Z,74.51
2022-11-17T06:32:10.186Z,76.06
2022-11-17T06:33:10.097Z,76.08
2022-11-17T06:34:10.094Z,75.48
2022-11-17T06:35:10.103Z,76.12
2022-11-17T06:36:10.121Z,77.77
2022-11-17T06:37:10.067Z,77.32
2022-11-17T06:38:11.079Z,76.53
2022-11-17T06:39:10.064Z,74.38
2022-11-17T06:40:10.060Z,75.60
2022-11-17T06:41:12.033Z,76.55
2022-11-17T06:42:11.047Z,72.45
2022-11-17T06:43:10.048Z,76.72
2022-11-17T06:44:10.039Z,75.66
2022-11-17T06:45:10.030Z,77.20
2022-11-17T06:46:10.028Z,77.45
2022-11-17T06:47:11.061Z,76.21
2022-11-17T06:48:10.101Z,77.18
2022-11-17T06:49:10.013Z,78.11
2022-11-17T06:50:09.999Z,75.23
2022-11-17T06:51:10.007Z,74.61
2022-11-17T06:52:10.015Z,76.72
2022-11-17T06:53:10.000Z,75.82
2022-11-17T06:54:09.981Z,75.02
2022-11-17T06:55:09.994Z,74.62
2022-11-17T06:56:09.972Z,75.46
2022-11-17T06:57:09.960Z,71.98
2022-11-17T06:58:09.987Z,73.22
2022-11-17T06:59:09.953Z,75.65
2022-11-17T07:00:10.002Z,71.37
2022-11-17T07:01:09.987Z,74.38
2022-11-17T07:02:09.940Z,73.45
2022-11-17T07:03:09.952Z,76.21
2022-11-17T07:04:10.002Z,71.67
2022-11-17T07:05:09.934Z,75.97
2022-11-17T07:06:09.903Z,73.31
2022-11-17T07:07:09.971Z,76.96
2022-11-17T07:08:09.915Z,73.41
2022-11-17T07:09:09.897Z,77.18
2022-11-17T07:10:09.897Z,73.25
2022-11-17T07:11:09.969Z,74.39
2022-11-17T07:12:09.882Z,75.50
2022-11-17T07:13:09.882Z,72.90
2022-11-17T07:14:09.879Z,75.43
2022-11-17T07:15:09.889Z,76.56
2022-11-17T07:16:09.860Z,74.16
2022-11-17T07:17:09.851Z,78.43
2022-11-17T07:18:09.860Z,76.42
2022-11-17T07:19:09.845Z,75.42
2022-11-17T07:20:09.954Z,73.23
2022-11-17T07:21:09.833Z,76.70
2022-11-17T07:22:09.820Z,71.89
2022-11-17T07:23:09.812Z,74.11
2022-11-17T07:24:09.820Z,72.78
2022-11-17T07:25:09.807Z,76.38
2022-11-17T07:26:09.820Z,77.41
2022-11-17T07:27:09.863Z,74.66
2022-11-17T07:28:09.798Z,76.78
2022-11-17T07:29:09.795Z,77.01
2022-11-17T07:30:09.776Z,71.75
2022-11-17T07:31:09.794Z,76.78
2022-11-17T07:32:09.762Z,75.47
2022-11-17T07:33:09.771Z,74.38
2022-11-17T07:34:09.741Z,75.36
2022-11-17T07:35:09.753Z,78.43
2022-11-17T07:36:09.978Z,72.79
2022-11-17T07:37:09.758Z,74.88
2022-11-17T07:38:09.741Z,78.04
2022-11-17T07:39:09.729Z,76.18
2022-11-17T07:40:09.795Z,75.61
2022-11-17T07:41:09.719Z,76.38
2022-11-17T07:42:09.730Z,76.17
2022-11-17T07:43:09.707Z,77.94
2022-11-17T07:44:09.694Z,77.82
2022-11-17T07:45:09.719Z,75.78
2022-11-17T07:46:09.682Z,76.16
2022-11-17T07:47:09.686Z,75.28
2022-11-17T07:48:09.682Z,73.10
2022-11-17T07:49:09.702Z,72.83
2022-11-17T07:50:09.669Z,72.74
2022-11-17T07:51:09.675Z,74.84
2022-11-17T07:52:09.726Z,75.96
2022-11-17T07:53:09.641Z,71.59
2022-11-17T07:54:09.645Z,76.04
2022-11-17T07:55:09.648Z,76.89
2022-11-17T07:56:09.673Z,75.97
2022-11-17T07:57:09.632Z,74.27
2022-11-17T07:58:09.634Z,76.24
2022-11-17T07:59:09.625Z,72.72
2022-11-17T08:00:09.615Z,73.72
2022-11-17T08:01:09.682Z,68.70
2022-11-17T08:02:09.601Z,76.15
2022-11-17T08:03:09.585Z,73.35
2022-11-17T08:04:09.679Z,75.26
2022-11-17T08:05:09.583Z,69.90
2022-11-17T08:06:09.597Z,73.98
2022-11-17T08:07:09.591Z,69.70
2022-11-17T08:08:09.639Z,74.37
2022-11-17T08:09:09.557Z,73.93
2022-11-17T08:10:09.560Z,75.63
2022-11-17T08:11:09.565Z,74.00
2022-11-17T08:12:09.541Z,75.01
2022-11-17T08:13:09.568Z,70.41
2022-11-17T08:14:09.518Z,76.50
2022-11-17T08:15:09.524Z,73.65
2022-11-17T08:16:09.514Z,76.34
2022-11-17T08:17:09.521Z,71.49
2022-11-17T08:18:09.516Z,69.80
2022-11-17T08:19:09.502Z,75.85
2022-11-17T08:20:09.488Z,76.24
2022-11-17T08:21:09.485Z,68.69
2022-11-17T08:22:09.475Z,75.27
2022-11-17T08:23:09.491Z,75.99
2022-11-17T08:24:09.465Z,73.44
2022-11-17T08:25:09.473Z,73.61
2022-11-17T08:26:09.462Z,72.94
2022-11-17T08:27:09.437Z,73.79
2022-11-17T08:28:09.480Z,73.15
2022-11-17T08:29:09.450Z,76.87
2022-11-17T08:30:09.436Z,74.67
2022-11-17T08:31:09.470Z,77.14
2022-11-17T08:32:09.444Z,77.77
2022-11-17T08:33:09.422Z,70.04
2022-11-17T08:34:09.438Z,75.84
2022-11-17T08:35:09.405Z,74.07
2022-11-17T08:36:09.393Z,76.97
2022-11-17T08:37:43.970Z,74.33
2022-11-17T08:38:10.209Z,72.69
2022-11-17T08:39:09.405Z,74.05
2022-11-17T08:40:09.489Z,77.07
2022-11-17T08:41:09.370Z,74.12
2022-11-17T08:42:09.390Z,74.48
2022-11-17T08:43:09.365Z,74.29
2022-11-17T08:44:09.391Z,76.64
2022-11-17T08:45:09.375Z,72.19
2022-11-17T08:46:09.342Z,73.45
2022-11-17T08:47:09.353Z,70.33
2022-11-17T08:48:09.437Z,68.95
2022-11-17T08:49:09.348Z,77.78
2022-11-17T08:50:09.341Z,75.62
2022-11-17T08:51:09.341Z,73.02
2022-11-17T08:52:09.317Z,73.01
2022-11-17T08:53:09.308Z,77.79
2022-11-17T08:54:09.340Z,73.47
2022-11-17T08:55:09.319Z,72.99
2022-11-17T08:56:10.386Z,74.19
2022-11-17T08:57:09.409Z,76.15
2022-11-17T08:58:09.290Z,70.39
2022-11-17T08:59:09.291Z,72.54
2022-11-17T09:00:09.291Z,75.58
2022-11-17T09:01:09.523Z,74.54
2022-11-17T09:02:09.291Z,74.53
2022-11-17T09:03:09.271Z,78.65
2022-11-17T09:04:09.296Z,75.05
2022-11-17T09:05:09.276Z,76.49
2022-11-17T09:06:09.299Z,71.78
2022-11-17T09:07:09.301Z,74.91
2022-11-17T09:09:11.248Z,76.42
2022-11-17T09:10:09.207Z,75.24
2022-11-17T09:11:09.274Z,74.90
2022-11-17T09:12:09.279Z,72.25
2022-11-17T09:13:09.237Z,73.59
2022-11-17T09:14:09.227Z,78.48
2022-11-17T09:15:09.237Z,77.04
2022-11-17T09:16:09.175Z,75.23
2022-11-17T09:17:09.211Z,76.35
2022-11-17T09:18:09.175Z,76.65
2022-11-17T09:19:09.166Z,75.20
2022-11-17T09:20:09.176Z,72.07
2022-11-17T09:21:09.161Z,77.64
2022-11-17T09:22:09.180Z,76.91
2022-11-17T09:23:09.175Z,77.34
2022-11-17T09:24:09.135Z,70.11
2022-11-17T09:25:13.387Z,75.39
2022-11-17T09:26:10.161Z,73.52
2022-11-17T09:27:09.124Z,75.12
2022-11-17T09:28:09.119Z,75.45
2022-11-17T09:29:09.151Z,75.72
2022-11-17T09:30:09.106Z,72.19
2022-11-17T09:31:09.230Z,78.27
2022-11-17T09:32:09.111Z,76.47
2022-11-17T09:33:09.094Z,73.78
2022-11-17T09:34:09.155Z,74.86
2022-11-17T09:35:09.107Z,75.45
2022-11-17T09:36:09.065Z,76.16
2022-11-17T09:37:09.050Z,76.39
2022-11-17T09:38:09.128Z,75.83
2022-11-17T09:39:09.067Z,74.04
2022-11-17T09:40:09.064Z,74.42
2022-11-17T09:41:09.059Z,76.09
2022-11-17T09:42:09.647Z,73.63
2022-11-17T09:43:09.048Z,75.72
2022-11-17T09:44:09.208Z,74.73
2022-11-17T09:45:09.091Z,76.70
2022-11-17T09:46:09.007Z,72.49
2022-11-17T09:47:09.023Z,76.06
2022-11-17T09:48:38.868Z,74.87
2022-11-17T09:49:11.004Z,74.34
2022-11-17T09:50:09.003Z,69.99
2022-11-17T09:51:08.997Z,75.99
2022-11-17T09:52:08.986Z,73.13
2022-11-17T09:53:08.995Z,73.60
2022-11-17T09:54:08.955Z,70.23
2022-11-17T09:55:08.951Z,75.52
2022-11-17T09:56:08.983Z,77.73
2022-11-17T09:57:08.935Z,77.87
2022-11-17T09:58:08.974Z,74.03
2022-11-17T09:59:08.919Z,76.65
2022-11-17T10:00:08.999Z,74.00
2022-11-17T10:01:08.912Z,70.90
2022-11-17T10:02:09.049Z,73.13
2022-11-17T10:03:08.907Z,75.15
2022-11-17T10:04:08.881Z,74.92
2022-11-17T10:05:08.892Z,73.44
2022-11-17T10:06:08.919Z,75.15
2022-11-17T10:07:08.931Z,75.51
2022-11-17T10:08:08.874Z,74.77
2022-11-17T10:09:08.862Z,75.53
2022-11-17T10:10:08.857Z,78.35
2022-11-17T10:11:08.873Z,75.37
2022-11-17T10:12:08.840Z,70.19
2022-11-17T10:13:08.884Z,77.24
2022-11-17T10:14:08.856Z,76.08
2022-11-17T10:15:08.823Z,78.39
2022-11-17T10:16:08.948Z,75.77
2022-11-17T10:17:08.807Z,73.19
2022-11-17T10:18:08.833Z,74.14
2022-11-17T10:19:08.831Z,78.77
2022-11-17T10:20:08.803Z,74.33
2022-11-17T10:21:08.799Z,78.36
2022-11-17T10:22:08.817Z,77.23
2022-11-17T10:23:08.818Z,78.02
2022-11-17T10:24:08.805Z,75.84
2022-11-17T10:25:08.763Z,79.26
2022-11-17T10:26:08.780Z,76.98
2022-11-17T10:27:08.790Z,74.63
2022-11-17T10:28:08.740Z,75.92
2022-11-17T10:29:09.427Z,76.78
2022-11-17T10:30:09.734Z,74.71
2022-11-17T10:31:08.723Z,76.31
2022-11-17T10:32:08.829Z,76.17
2022-11-17T10:33:08.705Z,79.31
2022-11-17T10:34:08.712Z,75.27
2022-11-17T10:35:08.716Z,77.65
2022-11-17T10:36:08.696Z,78.87
2022-11-17T10:37:08.684Z,81.89
2022-11-17T10:38:08.680Z,80.09
2022-11-17T10:39:17.456Z,80.13
2022-11-17T10:40:09.686Z,82.21
2022-11-17T10:41:08.753Z,78.05
2022-11-17T10:42:08.673Z,79.40
2022-11-17T10:43:08.649Z,77.91
2022-11-17T10:44:08.716Z,78.51
2022-11-17T10:45:08.648Z,83.31
2022-11-17T10:46:08.624Z,83.72
2022-11-17T10:47:08.623Z,74.57
2022-11-17T10:48:08.623Z,77.62
2022-11-17T10:49:08.604Z,78.84
2022-11-17T10:50:08.619Z,78.58
2022-11-17T10:51:08.628Z,80.81
2022-11-17T10:52:08.584Z,76.81
2022-11-17T10:53:12.572Z,77.34
2022-11-17T10:54:09.628Z,77.06
2022-11-17T10:55:08.612Z,79.19
2022-11-17T10:56:08.557Z,73.14
2022-11-17T10:57:08.611Z,76.99
2022-11-17T10:58:08.594Z,74.22
2022-11-17T10:59:08.560Z,77.68
2022-11-17T11:00:08.550Z,79.00
2022-11-17T11:01:08.617Z,75.19
2022-11-17T11:02:08.555Z,79.35
2022-11-17T11:03:08.514Z,77.35
2022-11-17T11:04:08.523Z,77.47
2022-11-17T11:05:08.544Z,81.58
2022-11-17T11:06:11.857Z,80.67
2022-11-17T11:07:09.550Z,81.99
2022-11-17T11:08:08.499Z,79.66
2022-11-17T11:09:08.482Z,81.45
2022-11-17T11:10:09.495Z,81.65
2022-11-17T11:11:08.494Z,84.04
2022-11-17T11:12:08.480Z,81.58
2022-11-17T11:13:08.464Z,75.00
2022-11-17T11:14:08.456Z,78.49
2022-11-17T11:15:08.454Z,78.91
2022-11-17T11:16:08.440Z,79.96
2022-11-17T11:17:08.456Z,88.13
2022-11-17T11:18:08.427Z,80.88
2022-11-17T11:19:08.783Z,77.17
2022-11-17T11:20:08.424Z,77.33
2022-11-17T11:21:08.395Z,71.97
2022-11-17T11:22:08.419Z,78.93
2022-11-17T11:23:08.403Z,77.29
2022-11-17T11:24:08.433Z,78.06
2022-11-17T11:25:08.408Z,77.47
2022-11-17T11:26:08.395Z,78.41
2022-11-17T11:27:08.386Z,75.21
2022-11-17T11:28:09.227Z,74.34
2022-11-17T11:29:08.589Z,77.77
2022-11-17T11:30:08.349Z,75.06
2022-11-17T11:31:08.329Z,73.86
2022-11-17T11:32:08.352Z,74.90
2022-11-17T11:33:08.392Z,76.49
2022-11-17T11:34:08.523Z,76.64
2022-11-17T11:35:12.025Z,75.21
2022-11-17T11:36:09.309Z,74.82
2022-11-17T11:37:08.294Z,78.59
2022-11-17T11:38:08.321Z,75.67
2022-11-17T11:39:08.745Z,76.70
2022-11-17T11:40:08.301Z,72.13
2022-11-17T11:41:08.341Z,76.67
2022-11-17T11:42:08.504Z,76.93
2022-11-17T11:43:08.266Z,77.01
2022-11-17T11:44:08.253Z,75.46
2022-11-17T11:45:08.242Z,76.35
2022-11-17T11:46:08.240Z,76.26
2022-11-17T11:47:08.216Z,74.63
2022-11-17T11:48:08.237Z,76.52
2022-11-17T11:49:08.467Z,72.45
2022-11-17T11:50:08.197Z,75.14
2022-11-17T11:51:08.205Z,73.89
2022-11-17T11:52:08.193Z,75.86
2022-11-17T11:53:08.229Z,71.77
2022-11-17T11:54:08.398Z,70.71
2022-11-17T11:55:08.164Z,71.82
2022-11-17T11:56:08.182Z,73.79
2022-11-17T11:57:08.156Z,73.85
2022-11-17T11:58:08.149Z,73.04
2022-11-17T11:59:08.163Z,72.70
2022-11-17T12:00:08.160Z,75.48
2022-11-17T12:01:08.148Z,76.53
2022-11-17T12:02:08.180Z,78.48
2022-11-17T12:03:08.141Z,72.93
2022-11-17T12:04:08.311Z,77.15
2022-11-17T12:05:08.098Z,73.39
2022-11-17T12:06:08.097Z,78.44
2022-11-17T12:07:08.135Z,73.77
2022-11-17T12:08:10.757Z,74.83
2022-11-17T12:09:09.108Z,75.37
2022-11-17T12:10:08.079Z,74.93
2022-11-17T12:11:08.065Z,73.81
2022-11-17T12:12:08.069Z,74.87
2022-11-17T12:13:08.045Z,75.74
2022-11-17T12:14:08.184Z,75.26
2022-11-17T12:15:08.049Z,73.21
2022-11-17T12:16:08.028Z,75.34
2022-11-17T12:17:08.020Z,73.51
2022-11-17T12:18:08.021Z,75.61
2022-11-17T12:19:08.026Z,73.95
2022-11-17T12:20:11.069Z,76.09
2022-11-17T12:21:09.041Z,75.83
2022-11-17T12:22:08.000Z,77.81
2022-11-17T12:23:07.989Z,73.93
2022-11-17T12:24:08.024Z,75.44
2022-11-17T12:25:07.984Z,74.28
2022-11-17T12:26:08.981Z,78.16
2022-11-17T12:27:07.961Z,77.97
2022-11-17T12:28:07.965Z,75.69
2022-11-17T12:29:08.069Z,73.42
2022-11-17T12:30:07.994Z,74.80
2022-11-17T12:31:10.397Z,75.66
2022-11-17T12:32:09.009Z,69.68
2022-11-17T12:33:08.012Z,74.70
2022-11-17T12:34:07.925Z,75.12
2022-11-17T12:35:07.924Z,76.30
2022-11-17T12:36:07.921Z,75.79
2022-11-17T12:37:07.920Z,73.75
2022-11-17T12:38:08.012Z,72.31
2022-11-17T12:39:07.896Z,76.34
2022-11-17T12:40:08.055Z,75.66
2022-11-17T12:41:07.917Z,72.84
2022-11-17T12:42:07.884Z,74.87
2022-11-17T12:43:07.856Z,74.88
2022-11-17T12:44:07.878Z,71.48
2022-11-17T12:45:07.903Z,74.16
2022-11-17T12:46:07.858Z,74.24
2022-11-17T12:47:07.873Z,73.46
2022-11-17T12:48:32.402Z,73.28
2022-11-17T12:49:09.895Z,71.31
2022-11-17T12:50:07.839Z,75.23
2022-11-17T12:51:07.813Z,76.33
2022-11-17T12:52:07.825Z,72.41
2022-11-17T12:53:07.804Z,76.27